createdAt,value
2019-01-27T00:00:20.630Z,81.80
2019-01-27T00:01:20.596Z,141.20
2019-01-27T00:02:20.559Z,114.10
2019-01-27T00:03:20.525Z,159.70
2019-01-27T00:04:20.493Z,111.20
2019-01-27T00:05:20.457Z,118.50
2019-01-27T00:06:20.425Z,184.70
2019-01-27T00:07:20.390Z,224.50
2019-01-27T00:08:20.358Z,159.90
2019-01-27T00:09:20.319Z,95.60
2019-01-27T00:10:20.288Z,259.30
2019-01-27T00:11:20.252Z,184.60
2019-01-27T00:12:20.218Z,221.50
2019-01-27T00:13:20.183Z,99.10
2019-01-27T00:14:20.149Z,100.00
2019-01-27T00:15:20.118Z,107.30
2019-01-27T00:16:20.081Z,80.60
2019-01-27T00:17:20.047Z,356.70
2019-01-27T00:18:20.013Z,97.50
2019-01-27T00:19:19.979Z,141.30
2019-01-27T00:20:19.945Z,96.50
2019-01-27T00:21:19.968Z,131.80
2019-01-27T00:22:19.877Z,175.60
2019-01-27T00:23:19.843Z,120.00
2019-01-27T00:24:19.809Z,99.80
2019-01-27T00:25:19.775Z,60.40
2019-01-27T00:26:19.739Z,162.70
2019-01-27T00:27:19.708Z,86.20
2019-01-27T00:28:19.672Z,132.40
2019-01-27T00:29:19.637Z,154.60
2019-01-27T00:30:19.603Z,144.00
2019-01-27T00:31:19.570Z,137.10
2019-01-27T00:32:19.534Z,153.50
2019-01-27T00:33:19.500Z,131.30
2019-01-27T00:34:19.467Z,117.40
2019-01-27T00:35:19.432Z,60.50
2019-01-27T00:36:19.399Z,111.70
2019-01-27T00:37:19.367Z,74.40
2019-01-27T00:38:19.329Z,123.70
2019-01-27T00:39:19.296Z,186.30
2019-01-27T00:40:19.260Z,55.90
2019-01-27T00:41:19.226Z,84.80
2019-01-27T00:42:19.191Z,161.60
2019-01-27T00:43:19.158Z,55.80
2019-01-27T00:44:19.125Z,119.30
2019-01-27T00:45:19.088Z,229.60
2019-01-27T00:46:19.055Z,89.70
2019-01-27T00:47:19.023Z,76.00
2019-01-27T00:48:18.987Z,48.10
2019-01-27T00:49:18.956Z,52.50
2019-01-27T00:50:18.943Z,54.60
2019-01-27T00:51:18.883Z,62.10
2019-01-27T00:52:18.849Z,67.40
2019-01-27T00:53:18.818Z,65.10
2019-01-27T00:54:18.780Z,63.00
2019-01-27T00:55:18.759Z,103.20
2019-01-27T00:56:18.712Z,52.80
2019-01-27T00:57:18.677Z,86.30
2019-01-27T00:58:18.646Z,57.50
2019-01-27T00:59:18.611Z,58.10
2019-01-27T01:00:18.575Z,81.40
2019-01-27T01:01:18.538Z,52.60
2019-01-27T01:02:18.507Z,46.60
2019-01-27T01:03:18.472Z,47.30
2019-01-27T01:04:18.437Z,52.80
2019-01-27T01:05:18.402Z,55.10
2019-01-27T01:06:18.369Z,34.20
2019-01-27T01:07:18.337Z,35.60
2019-01-27T01:08:18.299Z,37.90
2019-01-27T01:09:18.264Z,41.70
2019-01-27T01:10:18.230Z,51.30
2019-01-27T01:11:18.195Z,44.80
2019-01-27T01:12:18.161Z,62.90
2019-01-27T01:13:18.127Z,57.40
2019-01-27T01:14:18.092Z,51.10
2019-01-27T01:15:18.057Z,44.70
2019-01-27T01:16:18.024Z,44.20
2019-01-27T01:17:17.989Z,34.90
2019-01-27T01:18:17.954Z,29.30
2019-01-27T01:19:17.921Z,35.50
2019-01-27T01:20:17.886Z,30.50
2019-01-27T01:21:17.851Z,28.20
2019-01-27T01:22:17.816Z,33.90
2019-01-27T01:23:17.782Z,35.50
2019-01-27T01:24:17.748Z,31.20
2019-01-27T01:25:17.714Z,35.90
2019-01-27T01:26:17.679Z,35.70
2019-01-27T01:27:17.645Z,46.50
2019-01-27T01:28:17.610Z,29.90
2019-01-27T01:29:17.574Z,27.70
2019-01-27T01:30:17.542Z,26.50
2019-01-27T01:31:17.506Z,28.10
2019-01-27T01:32:17.472Z,23.90
2019-01-27T01:33:17.441Z,26.40
2019-01-27T01:34:17.417Z,22.70
2019-01-27T01:35:17.369Z,20.30
2019-01-27T01:36:17.335Z,19.10
2019-01-27T01:37:17.300Z,19.50
2019-01-27T01:38:17.265Z,18.30
2019-01-27T01:39:17.232Z,19.50
2019-01-27T01:40:17.201Z,20.20
2019-01-27T01:41:17.162Z,17.80
2019-01-27T01:42:17.128Z,18.00
2019-01-27T01:43:17.094Z,16.40
2019-01-27T01:44:17.060Z,17.60
2019-01-27T01:45:17.026Z,16.70
2019-01-27T01:46:16.990Z,17.50
2019-01-27T01:47:16.956Z,17.20
2019-01-27T01:48:16.923Z,20.00
2019-01-27T01:49:16.887Z,18.50
2019-01-27T01:50:16.854Z,19.10
2019-01-27T01:51:16.818Z,18.10
2019-01-27T01:52:16.784Z,17.80
2019-01-27T01:53:16.752Z,17.90
2019-01-27T01:54:16.716Z,16.30
2019-01-27T01:55:16.681Z,16.20
2019-01-27T01:56:16.648Z,17.10
2019-01-27T01:57:16.616Z,20.50
2019-01-27T01:58:16.587Z,17.70
2019-01-27T01:59:16.544Z,18.00
2019-01-27T02:00:16.509Z,18.40
2019-01-27T02:01:16.474Z,15.50
2019-01-27T02:02:16.440Z,15.40
2019-01-27T02:03:16.407Z,16.00
2019-01-27T02:04:16.371Z,16.40
2019-01-27T02:05:16.336Z,16.50
2019-01-27T02:06:16.304Z,16.70
2019-01-27T02:07:16.268Z,17.00
2019-01-27T02:08:16.234Z,18.40
2019-01-27T02:09:16.200Z,18.60
2019-01-27T02:10:16.166Z,18.90
2019-01-27T02:11:16.130Z,19.00
2019-01-27T02:12:16.098Z,18.70
2019-01-27T02:13:16.062Z,17.90
2019-01-27T02:14:16.026Z,17.00
2019-01-27T02:15:15.994Z,19.30
2019-01-27T02:16:15.957Z,17.30
2019-01-27T02:17:15.947Z,17.50
2019-01-27T02:18:15.892Z,20.70
2019-01-27T02:19:15.855Z,18.70
2019-01-27T02:20:15.820Z,18.20
2019-01-27T02:21:15.785Z,17.60
2019-01-27T02:22:15.751Z,19.70
2019-01-27T02:23:15.715Z,19.70
2019-01-27T02:24:15.681Z,19.40
2019-01-27T02:25:15.645Z,17.20
2019-01-27T02:26:15.611Z,17.90
2019-01-27T02:27:15.578Z,18.40
2019-01-27T02:28:15.543Z,18.20
2019-01-27T02:29:15.507Z,17.70
2019-01-27T02:30:15.473Z,19.40
2019-01-27T02:31:15.440Z,18.00
2019-01-27T02:32:15.405Z,18.10
2019-01-27T02:33:15.368Z,16.30
2019-01-27T02:34:15.334Z,17.20
2019-01-27T02:35:15.300Z,15.50
2019-01-27T02:36:15.267Z,16.90
2019-01-27T02:37:15.233Z,16.70
2019-01-27T02:38:15.197Z,16.40
2019-01-27T02:39:15.162Z,17.30
2019-01-27T02:40:15.130Z,15.40
2019-01-27T02:41:15.092Z,16.60
2019-01-27T02:42:15.058Z,16.60
2019-01-27T02:43:15.024Z,15.70
2019-01-27T02:44:14.989Z,16.10
2019-01-27T02:45:14.955Z,15.60
2019-01-27T02:46:14.920Z,15.40
2019-01-27T02:47:14.884Z,15.70
2019-01-27T02:48:14.853Z,16.60
2019-01-27T02:49:14.816Z,16.10
2019-01-27T02:50:14.781Z,16.20
2019-01-27T02:51:14.753Z,15.10
2019-01-27T02:52:14.712Z,15.30
2019-01-27T02:53:14.681Z,13.90
2019-01-27T02:54:14.643Z,17.60
2019-01-27T02:55:14.611Z,14.50
2019-01-27T02:56:14.574Z,15.70
2019-01-27T02:57:14.537Z,13.90
2019-01-27T02:58:14.506Z,16.70
2019-01-27T02:59:14.470Z,13.30
2019-01-27T03:00:14.436Z,15.40
2019-01-27T03:01:14.400Z,15.10
2019-01-27T03:02:14.373Z,14.50
2019-01-27T03:03:14.331Z,16.90
2019-01-27T03:04:14.298Z,14.80
2019-01-27T03:05:14.261Z,13.70
2019-01-27T03:06:14.227Z,16.20
2019-01-27T03:07:14.194Z,17.10
2019-01-27T03:08:14.161Z,16.10
2019-01-27T03:09:14.123Z,16.50
2019-01-27T03:10:14.090Z,14.20
2019-01-27T03:11:14.057Z,14.90
2019-01-27T03:12:14.020Z,15.00
2019-01-27T03:13:13.986Z,12.20
2019-01-27T03:14:13.955Z,14.10
2019-01-27T03:15:13.922Z,14.20
2019-01-27T03:16:13.882Z,12.70
2019-01-27T03:17:13.847Z,13.40
2019-01-27T03:18:13.812Z,12.90
2019-01-27T03:19:13.778Z,12.70
2019-01-27T03:20:13.745Z,11.50
2019-01-27T03:21:13.711Z,13.10
2019-01-27T03:22:13.677Z,12.70
2019-01-27T03:23:13.643Z,12.70
2019-01-27T03:24:13.607Z,13.00
2019-01-27T03:25:13.570Z,11.70
2019-01-27T03:26:13.536Z,12.00
2019-01-27T03:27:13.502Z,13.10
2019-01-27T03:28:13.467Z,13.10
2019-01-27T03:29:13.431Z,16.40
2019-01-27T03:30:13.414Z,12.30
2019-01-27T03:31:13.364Z,13.00
2019-01-27T03:32:13.331Z,13.90
2019-01-27T03:33:13.302Z,12.60
2019-01-27T03:34:13.261Z,11.50
2019-01-27T03:35:13.225Z,12.30
2019-01-27T03:36:13.192Z,13.20
2019-01-27T03:37:13.155Z,13.20
2019-01-27T03:38:13.121Z,13.30
2019-01-27T03:39:13.087Z,13.40
2019-01-27T03:40:13.052Z,12.40
2019-01-27T03:41:13.017Z,13.60
2019-01-27T03:42:12.984Z,12.20
2019-01-27T03:43:12.948Z,14.00
2019-01-27T03:44:12.915Z,13.10
2019-01-27T03:45:12.879Z,14.00
2019-01-27T03:46:12.847Z,11.70
2019-01-27T03:47:12.811Z,13.40
2019-01-27T03:48:12.776Z,15.10
2019-01-27T03:49:12.742Z,14.10
2019-01-27T03:50:12.707Z,11.20
2019-01-27T03:51:12.677Z,12.00
2019-01-27T03:52:12.637Z,12.00
2019-01-27T03:53:12.603Z,11.40
2019-01-27T03:54:12.569Z,13.50
2019-01-27T03:55:12.534Z,12.10
2019-01-27T03:56:12.501Z,12.60
2019-01-27T03:57:12.464Z,11.30
2019-01-27T03:58:12.432Z,11.20
2019-01-27T03:59:12.395Z,13.60
2019-01-27T04:00:12.362Z,11.40
2019-01-27T04:01:12.326Z,14.50
2019-01-27T04:02:12.293Z,13.30
2019-01-27T04:03:12.258Z,12.80
2019-01-27T04:04:12.224Z,13.20
2019-01-27T04:05:12.188Z,10.80
2019-01-27T04:06:12.153Z,10.70
2019-01-27T04:07:12.140Z,11.40
2019-01-27T04:08:12.089Z,11.70
2019-01-27T04:09:12.054Z,11.90
2019-01-27T04:10:12.015Z,11.20
2019-01-27T04:11:11.985Z,12.90
2019-01-27T04:12:11.950Z,12.50
2019-01-27T04:13:11.913Z,11.80
2019-01-27T04:14:11.878Z,12.50
2019-01-27T04:15:11.844Z,11.60
2019-01-27T04:16:11.810Z,12.60
2019-01-27T04:17:11.775Z,12.50
2019-01-27T04:18:11.738Z,11.30
2019-01-27T04:19:11.703Z,11.80
2019-01-27T04:20:11.671Z,11.80
2019-01-27T04:21:11.634Z,13.30
2019-01-27T04:22:11.600Z,11.30
2019-01-27T04:23:11.566Z,11.30
2019-01-27T04:24:11.532Z,13.50
2019-01-27T04:25:11.497Z,12.80
2019-01-27T04:26:11.465Z,12.80
2019-01-27T04:27:11.428Z,13.50
2019-01-27T04:28:11.562Z,12.30
2019-01-27T04:29:11.359Z,11.70
2019-01-27T04:30:11.324Z,12.80
2019-01-27T04:31:11.289Z,14.20
2019-01-27T04:32:11.256Z,10.90
2019-01-27T04:33:11.220Z,10.80
2019-01-27T04:34:11.188Z,12.60
2019-01-27T04:35:11.156Z,11.70
2019-01-27T04:36:11.116Z,12.60
2019-01-27T04:37:11.080Z,11.40
2019-01-27T04:38:11.047Z,11.70
2019-01-27T04:39:11.014Z,11.10
2019-01-27T04:40:10.979Z,11.20
2019-01-27T04:41:10.944Z,11.70
2019-01-27T04:42:10.909Z,11.60
2019-01-27T04:43:10.873Z,12.00
2019-01-27T04:44:10.842Z,11.40
2019-01-27T04:45:10.804Z,12.00
2019-01-27T04:46:10.771Z,11.10
2019-01-27T04:47:10.737Z,11.10
2019-01-27T04:48:10.701Z,10.90
2019-01-27T04:49:10.666Z,11.40
2019-01-27T04:50:10.633Z,13.40
2019-01-27T04:51:10.598Z,13.40
2019-01-27T04:52:10.563Z,12.80
2019-01-27T04:53:10.529Z,12.30
2019-01-27T04:54:10.502Z,11.50
2019-01-27T04:55:10.460Z,11.10
2019-01-27T04:56:10.423Z,10.40
2019-01-27T04:57:10.389Z,15.10
2019-01-27T04:58:10.363Z,11.70
2019-01-27T04:59:10.323Z,10.40
2019-01-27T05:00:10.286Z,11.70
2019-01-27T05:01:10.250Z,10.30
2019-01-27T05:02:10.218Z,11.60
2019-01-27T05:03:10.182Z,10.50
2019-01-27T05:04:10.149Z,12.90
2019-01-27T05:05:10.115Z,10.90
2019-01-27T05:06:10.082Z,11.30
2019-01-27T05:07:10.051Z,10.60
2019-01-27T05:08:10.011Z,10.90
2019-01-27T05:09:09.975Z,10.80
2019-01-27T05:10:09.940Z,10.60
2019-01-27T05:11:09.909Z,10.40
2019-01-27T05:12:09.872Z,10.90
2019-01-27T05:13:09.837Z,9.60
2019-01-27T05:14:09.802Z,11.40
2019-01-27T05:15:09.768Z,11.40
2019-01-27T05:16:09.733Z,11.70
2019-01-27T05:17:09.699Z,10.50
2019-01-27T05:18:09.665Z,10.30
2019-01-27T05:19:09.630Z,11.10
2019-01-27T05:20:09.599Z,10.50
2019-01-27T05:21:09.559Z,11.80
2019-01-27T05:22:09.525Z,11.70
2019-01-27T05:23:09.492Z,11.60
2019-01-27T05:24:09.457Z,12.20
2019-01-27T05:25:09.422Z,11.80
2019-01-27T05:26:09.391Z,12.10
2019-01-27T05:27:09.407Z,13.00
2019-01-27T05:28:09.317Z,12.10
2019-01-27T05:29:09.282Z,10.80
2019-01-27T05:30:09.249Z,11.80
2019-01-27T05:31:09.215Z,12.90
2019-01-27T05:32:09.179Z,13.40
2019-01-27T05:33:09.144Z,13.30
2019-01-27T05:34:09.110Z,12.40
2019-01-27T05:35:09.075Z,10.70
2019-01-27T05:36:09.042Z,13.10
2019-01-27T05:37:09.006Z,12.20
2019-01-27T05:38:08.972Z,12.20
2019-01-27T05:39:08.938Z,13.30
2019-01-27T05:40:08.902Z,13.30
2019-01-27T05:41:08.866Z,12.10
2019-01-27T05:42:08.833Z,11.50
2019-01-27T05:43:08.800Z,12.40
2019-01-27T05:44:08.763Z,12.60
2019-01-27T05:45:08.729Z,11.80
2019-01-27T05:46:08.697Z,12.30
2019-01-27T05:47:08.667Z,12.00
2019-01-27T05:48:08.627Z,10.40
2019-01-27T05:49:08.592Z,13.10
2019-01-27T05:50:08.556Z,13.70
2019-01-27T05:51:08.521Z,12.70
2019-01-27T05:52:08.489Z,12.20
2019-01-27T05:53:08.453Z,12.70
2019-01-27T05:54:08.417Z,12.10
2019-01-27T05:55:08.384Z,13.20
2019-01-27T05:56:08.353Z,11.40
2019-01-27T05:57:08.314Z,11.60
2019-01-27T05:58:08.280Z,10.30
2019-01-27T05:59:08.245Z,11.80
2019-01-27T06:00:08.213Z,11.20
2019-01-27T06:01:08.175Z,11.50
2019-01-27T06:02:08.141Z,11.00
2019-01-27T06:03:08.106Z,12.90
2019-01-27T06:04:08.071Z,12.40
2019-01-27T06:05:08.037Z,12.70
2019-01-27T06:06:08.004Z,12.30
2019-01-27T06:07:07.967Z,11.90
2019-01-27T06:08:07.932Z,11.90
2019-01-27T06:09:07.898Z,12.40
2019-01-27T06:10:07.865Z,12.70
2019-01-27T06:11:07.830Z,11.90
2019-01-27T06:12:07.795Z,12.40
2019-01-27T06:13:07.759Z,11.00
2019-01-27T06:14:07.726Z,11.00
2019-01-27T06:15:07.695Z,10.90
2019-01-27T06:16:07.657Z,11.60
2019-01-27T06:17:07.621Z,12.40
2019-01-27T06:18:07.588Z,11.30
2019-01-27T06:19:07.553Z,11.20
2019-01-27T06:20:07.519Z,12.70
2019-01-27T06:21:07.487Z,11.50
2019-01-27T06:22:07.450Z,12.50
2019-01-27T06:23:07.418Z,11.30
2019-01-27T06:24:07.386Z,11.60
2019-01-27T06:25:07.346Z,11.30
2019-01-27T06:26:07.314Z,11.80
2019-01-27T06:27:07.279Z,10.60
2019-01-27T06:28:07.245Z,12.90
2019-01-27T06:29:07.207Z,12.90
2019-01-27T06:30:07.172Z,12.90
2019-01-27T06:31:07.137Z,13.30
2019-01-27T06:32:07.103Z,12.80
2019-01-27T06:33:07.069Z,12.80
2019-01-27T06:34:07.034Z,14.80
2019-01-27T06:35:06.999Z,12.80
2019-01-27T06:36:06.969Z,12.80
2019-01-27T06:37:06.939Z,13.60
2019-01-27T06:38:06.895Z,14.10
2019-01-27T06:39:06.861Z,13.20
2019-01-27T06:40:06.827Z,13.20
2019-01-27T06:41:06.791Z,14.10
2019-01-27T06:42:06.757Z,13.50
2019-01-27T06:43:06.722Z,14.00
2019-01-27T06:44:06.690Z,14.50
2019-01-27T06:45:06.654Z,12.80
2019-01-27T06:46:06.619Z,14.50
2019-01-27T06:47:06.584Z,14.70
2019-01-27T06:48:06.552Z,15.40
2019-01-27T06:49:06.514Z,14.80
2019-01-27T06:50:06.481Z,16.90
2019-01-27T06:51:06.447Z,15.10
2019-01-27T06:52:06.412Z,14.90
2019-01-27T06:53:06.376Z,14.80
2019-01-27T06:54:06.342Z,14.90
2019-01-27T06:55:06.307Z,15.10
2019-01-27T06:56:06.272Z,16.80
2019-01-27T06:57:06.237Z,13.50
2019-01-27T06:58:06.204Z,15.40
2019-01-27T06:59:06.171Z,15.60
2019-01-27T07:00:06.134Z,16.20
2019-01-27T07:01:06.100Z,17.40
2019-01-27T07:02:06.066Z,16.10
2019-01-27T07:03:06.031Z,16.50
2019-01-27T07:04:05.998Z,16.20
2019-01-27T07:05:05.961Z,16.60
2019-01-27T07:06:05.926Z,18.80
2019-01-27T07:07:05.892Z,16.60
2019-01-27T07:08:05.903Z,16.90
2019-01-27T07:09:05.823Z,17.10
2019-01-27T07:10:05.788Z,14.40
2019-01-27T07:11:05.754Z,17.40
2019-01-27T07:12:05.719Z,17.90
2019-01-27T07:13:05.684Z,17.80
2019-01-27T07:14:05.660Z,17.40
2019-01-27T07:15:05.618Z,19.20
2019-01-27T07:16:05.581Z,16.60
2019-01-27T07:17:05.545Z,18.50
2019-01-27T07:18:05.512Z,17.30
2019-01-27T07:19:05.477Z,17.80
2019-01-27T07:20:05.443Z,18.60
2019-01-27T07:21:05.406Z,18.00
2019-01-27T07:22:05.375Z,17.00
2019-01-27T07:23:05.339Z,15.80
2019-01-27T07:24:05.307Z,16.60
2019-01-27T07:25:05.271Z,16.90
2019-01-27T07:26:05.236Z,18.40
2019-01-27T07:27:05.200Z,17.40
2019-01-27T07:28:05.165Z,17.80
2019-01-27T07:29:05.131Z,17.30
2019-01-27T07:30:05.097Z,19.10
2019-01-27T07:31:05.061Z,18.60
2019-01-27T07:32:05.027Z,20.90
2019-01-27T07:33:04.994Z,17.00
2019-01-27T07:34:04.958Z,18.60
2019-01-27T07:35:04.923Z,18.40
2019-01-27T07:36:04.887Z,18.40
2019-01-27T07:37:04.852Z,17.30
2019-01-27T07:38:04.819Z,18.30
2019-01-27T07:39:04.785Z,18.80
2019-01-27T07:40:04.749Z,19.60
2019-01-27T07:41:04.714Z,20.00
2019-01-27T07:42:04.679Z,18.70
2019-01-27T07:43:04.651Z,20.50
2019-01-27T07:44:04.611Z,18.70
2019-01-27T07:45:04.576Z,19.50
2019-01-27T07:46:04.543Z,21.70
2019-01-27T07:47:04.507Z,20.90
2019-01-27T07:48:04.475Z,20.00
2019-01-27T07:49:04.440Z,18.30
2019-01-27T07:50:04.407Z,18.70
2019-01-27T07:51:04.370Z,18.70
2019-01-27T07:52:04.335Z,21.60
2019-01-27T07:53:04.300Z,21.20
2019-01-27T07:54:04.266Z,19.90
2019-01-27T07:55:04.231Z,20.10
2019-01-27T07:56:04.247Z,21.40
2019-01-27T07:57:04.161Z,17.30
2019-01-27T07:58:04.129Z,22.90
2019-01-27T07:59:04.094Z,21.40
2019-01-27T08:00:04.062Z,22.30
2019-01-27T08:01:04.024Z,18.30
2019-01-27T08:02:03.990Z,22.10
2019-01-27T08:03:03.954Z,21.00
2019-01-27T08:04:03.920Z,20.00
2019-01-27T08:05:03.885Z,18.30
2019-01-27T08:06:03.851Z,16.60
2019-01-27T08:07:04.365Z,19.10
2019-01-27T08:08:03.782Z,20.80
2019-01-27T08:09:03.746Z,19.00
2019-01-27T08:10:03.712Z,18.90
2019-01-27T08:11:03.677Z,19.70
2019-01-27T08:12:03.661Z,17.70
2019-01-27T08:13:03.609Z,19.40
2019-01-27T08:14:03.574Z,18.40
2019-01-27T08:15:03.540Z,20.00
2019-01-27T08:16:03.505Z,20.70
2019-01-27T08:17:03.636Z,22.20
2019-01-27T08:18:03.437Z,17.40
2019-01-27T08:19:03.401Z,17.20
2019-01-27T08:20:03.366Z,18.20
2019-01-27T08:21:03.334Z,18.10
2019-01-27T08:22:03.297Z,17.00
2019-01-27T08:23:03.262Z,17.80
2019-01-27T08:24:03.230Z,21.30
2019-01-27T08:25:03.239Z,20.30
2019-01-27T08:26:03.158Z,18.50
2019-01-27T08:27:03.125Z,19.60
2019-01-27T08:28:03.091Z,18.70
2019-01-27T08:29:03.058Z,17.50
2019-01-27T08:30:03.021Z,18.30
2019-01-27T08:31:02.988Z,17.60
2019-01-27T08:32:02.952Z,19.50
2019-01-27T08:33:02.920Z,19.70
2019-01-27T08:34:02.886Z,17.70
2019-01-27T08:35:02.851Z,18.30
2019-01-27T08:36:02.819Z,17.50
2019-01-27T08:37:02.781Z,15.80
2019-01-27T08:38:02.746Z,14.80
2019-01-27T08:39:02.713Z,17.20
2019-01-27T08:40:02.677Z,18.10
2019-01-27T08:41:02.644Z,16.50
2019-01-27T08:42:02.607Z,16.30
2019-01-27T08:43:02.581Z,17.10
2019-01-27T08:44:02.540Z,16.90
2019-01-27T08:45:02.505Z,18.00
2019-01-27T08:46:02.472Z,16.90
2019-01-27T08:47:02.436Z,17.00
2019-01-27T08:48:02.404Z,17.30
2019-01-27T08:49:02.368Z,16.20
2019-01-27T08:50:02.335Z,17.70
2019-01-27T08:51:02.300Z,16.50
2019-01-27T08:52:02.267Z,17.50
2019-01-27T08:53:02.231Z,18.70
2019-01-27T08:54:02.197Z,19.10
2019-01-27T08:55:02.165Z,18.10
2019-01-27T08:56:02.131Z,16.00
2019-01-27T08:57:02.094Z,17.50
2019-01-27T08:58:02.061Z,17.00
2019-01-27T08:59:02.030Z,17.20
2019-01-27T09:00:01.995Z,21.30
2019-01-27T09:01:01.958Z,13.60
2019-01-27T09:02:01.924Z,16.30
2019-01-27T09:03:03.388Z,17.60
2019-01-27T09:04:01.859Z,15.30
2019-01-27T09:05:01.822Z,15.80
2019-01-27T09:06:01.790Z,17.20
2019-01-27T09:07:01.754Z,13.70
2019-01-27T09:08:01.722Z,20.50
2019-01-27T09:09:01.688Z,27.70
2019-01-27T09:10:01.654Z,17.40
2019-01-27T09:11:01.618Z,15.80
2019-01-27T09:12:01.586Z,16.70
2019-01-27T09:13:01.550Z,23.50
2019-01-27T09:14:01.879Z,22.30
2019-01-27T09:15:01.483Z,16.70
2019-01-27T09:16:01.449Z,14.50
2019-01-27T09:17:01.415Z,23.90
2019-01-27T09:18:01.380Z,15.90
2019-01-27T09:19:01.347Z,12.60
2019-01-27T09:20:01.315Z,14.70
2019-01-27T09:21:01.279Z,12.80
2019-01-27T09:22:01.468Z,11.60
2019-01-27T09:23:01.213Z,11.40
2019-01-27T09:24:01.180Z,13.10
2019-01-27T09:25:01.145Z,12.10
2019-01-27T09:26:01.110Z,11.30
2019-01-27T09:27:01.076Z,12.10
2019-01-27T09:28:01.043Z,12.80
2019-01-27T09:29:01.008Z,11.00
2019-01-27T09:30:00.980Z,10.00
2019-01-27T09:31:00.940Z,9.70
2019-01-27T09:32:00.916Z,8.90
2019-01-27T09:33:00.874Z,7.00
2019-01-27T09:34:00.840Z,7.80
2019-01-27T09:35:00.809Z,8.50
2019-01-27T09:36:00.774Z,7.30
2019-01-27T09:37:00.743Z,6.30
2019-01-27T09:38:00.713Z,6.40
2019-01-27T09:39:00.681Z,10.50
2019-01-27T09:40:00.647Z,8.00
2019-01-27T09:41:00.612Z,8.70
2019-01-27T09:42:00.578Z,7.40
2019-01-27T09:43:00.545Z,7.70
2019-01-27T09:44:00.513Z,9.80
2019-01-27T09:45:00.479Z,9.10
2019-01-27T09:46:05.429Z,9.20
2019-01-27T09:47:00.412Z,11.60
2019-01-27T09:48:00.381Z,9.00
2019-01-27T09:49:00.347Z,9.40
2019-01-27T09:50:00.315Z,10.40
2019-01-27T09:51:00.282Z,7.40
2019-01-27T09:52:00.249Z,8.70
2019-01-27T09:53:00.214Z,9.10
2019-01-27T09:54:00.181Z,7.60
2019-01-27T09:55:00.240Z,10.10
2019-01-27T09:56:00.117Z,10.30
2019-01-27T09:57:00.084Z,10.20
2019-01-27T09:58:00.050Z,8.80
2019-01-27T09:59:00.017Z,8.50
2019-01-27T09:59:59.983Z,7.80
2019-01-27T10:00:59.955Z,7.50
2019-01-27T10:01:59.917Z,8.00
2019-01-27T10:02:59.885Z,7.10
2019-01-27T10:03:59.852Z,10.70
2019-01-27T10:04:59.921Z,9.00
2019-01-27T10:05:59.785Z,15.50
2019-01-27T10:06:59.765Z,13.00
2019-01-27T10:07:59.720Z,10.80
2019-01-27T10:08:59.684Z,13.80
2019-01-27T10:09:59.653Z,7.90
2019-01-27T10:10:59.619Z,7.40
2019-01-27T10:11:59.589Z,5.90
2019-01-27T10:12:59.553Z,10.60
2019-01-27T10:13:59.520Z,18.50
2019-01-27T10:14:59.487Z,18.10
2019-01-27T10:15:59.454Z,15.70
2019-01-27T10:16:59.421Z,10.50
2019-01-27T10:17:59.388Z,7.30
2019-01-27T10:18:59.355Z,5.90
2019-01-27T10:19:59.321Z,5.70
2019-01-27T10:20:59.292Z,18.20
2019-01-27T10:21:59.256Z,20.70
2019-01-27T10:22:59.222Z,25.00
2019-01-27T10:23:59.189Z,20.30
2019-01-27T10:24:59.157Z,16.70
2019-01-27T10:25:59.124Z,26.90
2019-01-27T10:26:59.090Z,7.80
2019-01-27T10:27:59.058Z,8.20
2019-01-27T10:28:59.025Z,15.40
2019-01-27T10:29:58.995Z,17.30
2019-01-27T10:30:58.959Z,28.00
2019-01-27T10:31:58.934Z,9.40
2019-01-27T10:32:58.895Z,13.90
2019-01-27T10:33:58.862Z,15.10
2019-01-27T10:34:59.497Z,7.60
2019-01-27T10:35:58.796Z,4.70
2019-01-27T10:36:58.761Z,11.20
2019-01-27T10:37:58.729Z,9.90
2019-01-27T10:38:58.698Z,9.80
2019-01-27T10:39:58.668Z,9.20
2019-01-27T10:40:58.631Z,13.20
2019-01-27T10:41:58.600Z,21.60
2019-01-27T10:42:58.567Z,7.90
2019-01-27T10:43:58.547Z,19.20
2019-01-27T10:44:58.501Z,21.30
2019-01-27T10:45:58.467Z,43.60
2019-01-27T10:46:58.435Z,25.00
2019-01-27T10:47:58.659Z,26.00
2019-01-27T10:48:58.370Z,10.80
2019-01-27T10:49:58.373Z,6.90
2019-01-27T10:50:58.304Z,5.60
2019-01-27T10:51:58.271Z,4.70
2019-01-27T10:52:58.239Z,7.80
2019-01-27T10:53:58.205Z,11.30
2019-01-27T10:54:58.170Z,3.90
2019-01-27T10:55:58.138Z,5.60
2019-01-27T10:56:58.104Z,4.10
2019-01-27T10:57:58.072Z,4.80
2019-01-27T10:58:58.042Z,4.00
2019-01-27T10:59:58.006Z,4.30
2019-01-27T11:00:57.971Z,3.90
2019-01-27T11:01:57.939Z,4.20
2019-01-27T11:02:57.910Z,3.90
2019-01-27T11:03:57.876Z,3.80
2019-01-27T11:04:57.840Z,3.70
2019-01-27T11:05:57.809Z,3.90
2019-01-27T11:06:57.776Z,3.80
2019-01-27T11:07:57.753Z,8.20
2019-01-27T11:08:57.712Z,14.20
2019-01-27T11:09:57.675Z,7.20
2019-01-27T11:10:57.642Z,5.20
2019-01-27T11:11:57.611Z,10.60
2019-01-27T11:12:57.582Z,4.90
2019-01-27T11:13:57.544Z,4.40
2019-01-27T11:14:57.515Z,4.50
2019-01-27T11:15:57.558Z,3.20
2019-01-27T11:16:57.446Z,3.30
2019-01-27T11:17:57.413Z,9.70
2019-01-27T11:18:57.382Z,5.10
2019-01-27T11:19:57.349Z,6.30
2019-01-27T11:20:57.315Z,3.90
2019-01-27T11:21:57.284Z,5.20
2019-01-27T11:22:57.252Z,5.50
2019-01-27T11:23:57.219Z,3.00
2019-01-27T11:24:57.187Z,5.60
2019-01-27T11:26:00.689Z,3.60
2019-01-27T11:26:57.122Z,3.10
2019-01-27T11:27:57.092Z,3.40
2019-01-27T11:28:57.058Z,2.90
2019-01-27T11:29:57.026Z,3.00
2019-01-27T11:30:56.994Z,3.90
2019-01-27T11:31:56.964Z,6.00
2019-01-27T11:32:56.928Z,3.20
2019-01-27T11:33:56.897Z,3.50
2019-01-27T11:34:56.866Z,3.20
2019-01-27T11:35:56.833Z,2.80
2019-01-27T11:36:56.800Z,7.60
2019-01-27T11:37:56.769Z,4.70
2019-01-27T11:38:56.738Z,2.00
2019-01-27T11:39:56.711Z,3.40
2019-01-27T11:40:56.671Z,4.20
2019-01-27T11:41:56.640Z,4.20
2019-01-27T11:42:56.608Z,4.00
2019-01-27T11:43:56.576Z,2.40
2019-01-27T11:44:56.544Z,2.30
2019-01-27T11:45:56.512Z,2.40
2019-01-27T11:46:56.479Z,3.00
2019-01-27T11:47:56.451Z,2.30
2019-01-27T11:48:56.417Z,3.50
2019-01-27T11:49:56.385Z,2.90
2019-01-27T11:50:56.355Z,3.10
2019-01-27T11:51:56.365Z,3.80
2019-01-27T11:52:56.291Z,3.80
2019-01-27T11:53:56.260Z,2.20
2019-01-27T11:54:56.229Z,2.70
2019-01-27T11:55:56.246Z,2.40
2019-01-27T11:56:56.167Z,3.10
2019-01-27T11:57:56.134Z,2.10
2019-01-27T11:58:56.102Z,3.20
2019-01-27T11:59:56.070Z,1.90
2019-01-27T12:00:56.037Z,1.80
2019-01-27T12:01:56.006Z,2.00
2019-01-27T12:02:55.974Z,1.70
2019-01-27T12:03:55.942Z,2.00
2019-01-27T12:04:55.910Z,2.50
2019-01-27T12:05:55.878Z,1.80
2019-01-27T12:06:55.848Z,2.00
2019-01-27T12:07:55.816Z,1.70
2019-01-27T12:08:55.782Z,3.70
2019-01-27T12:09:55.751Z,1.90
2019-01-27T12:10:55.718Z,1.90
2019-01-27T12:11:55.684Z,1.70
2019-01-27T12:12:55.652Z,1.90
2019-01-27T12:13:55.623Z,1.80
2019-01-27T12:14:55.590Z,1.70
2019-01-27T12:15:55.557Z,1.60
2019-01-27T12:16:55.523Z,2.90
2019-01-27T12:17:55.493Z,2.00
2019-01-27T12:18:55.462Z,1.90
2019-01-27T12:19:55.428Z,1.70
2019-01-27T12:20:55.397Z,2.40
2019-01-27T12:21:55.365Z,2.50
2019-01-27T12:22:55.332Z,2.90
2019-01-27T12:23:55.300Z,1.70
2019-01-27T12:24:55.267Z,2.10
2019-01-27T12:25:55.236Z,1.60
2019-01-27T12:26:55.203Z,2.20
2019-01-27T12:27:55.172Z,2.30
2019-01-27T12:28:55.138Z,1.70
2019-01-27T12:29:55.106Z,2.30
2019-01-27T12:30:55.075Z,1.80
2019-01-27T12:31:55.042Z,2.30
2019-01-27T12:32:55.009Z,1.70
2019-01-27T12:33:54.979Z,1.80
2019-01-27T12:34:54.946Z,3.20
2019-01-27T12:35:54.913Z,2.80
2019-01-27T12:36:54.880Z,2.20
2019-01-27T12:37:54.849Z,2.10
2019-01-27T12:38:54.815Z,1.70
2019-01-27T12:39:54.785Z,1.80
2019-01-27T12:40:54.751Z,3.00
2019-01-27T12:41:54.720Z,2.40
2019-01-27T12:42:54.687Z,2.90
2019-01-27T12:43:54.657Z,1.60
2019-01-27T12:44:54.622Z,2.40
2019-01-27T12:45:54.589Z,1.60
2019-01-27T12:46:54.557Z,5.70
2019-01-27T12:47:54.525Z,2.30
2019-01-27T12:48:54.494Z,2.20
2019-01-27T12:49:54.460Z,3.40
2019-01-27T12:50:54.429Z,3.30
2019-01-27T12:51:54.395Z,1.90
2019-01-27T12:52:54.363Z,1.90
2019-01-27T12:53:54.331Z,2.10
2019-01-27T12:54:54.400Z,1.80
2019-01-27T12:55:54.267Z,2.00
2019-01-27T12:56:54.234Z,1.70